sensor_id;sensor_type;location;lat;lon;timestamp;P1;durP1;ratioP1;P2;durP2;ratioP2
76712;SDS011;65640;43.154;25.658;2024-02-14T00:01:22;4.97;;;3.40;;
76712;SDS011;65640;43.154;25.658;2024-02-14T00:03:47;5.97;;;4.72;;
76712;SDS011;65640;43.154;25.658;2024-02-14T00:06:12;4.60;;;4.20;;
76712;SDS011;65640;43.154;25.658;2024-02-14T00:08:38;5.93;;;4.30;;
76712;SDS011;65640;43.154;25.658;2024-02-14T00:11:04;5.05;;;4.68;;
76712;SDS011;65640;43.154;25.658;2024-02-14T00:13:29;5.75;;;5.20;;
76712;SDS011;65640;43.154;25.658;2024-02-14T00:15:55;5.88;;;5.38;;
76712;SDS011;65640;43.154;25.658;2024-02-14T00:18:21;5.03;;;4.53;;
76712;SDS011;65640;43.154;25.658;2024-02-14T00:20:47;5.47;;;4.85;;
76712;SDS011;65640;43.154;25.658;2024-02-14T00:23:13;7.43;;;6.72;;
76712;SDS011;65640;43.154;25.658;2024-02-14T00:25:38;5.40;;;4.93;;
76712;SDS011;65640;43.154;25.658;2024-02-14T00:28:04;6.53;;;5.38;;
76712;SDS011;65640;43.154;25.658;2024-02-14T00:30:30;7.53;;;6.43;;
76712;SDS011;65640;43.154;25.658;2024-02-14T00:32:56;10.43;;;6.63;;
76712;SDS011;65640;43.154;25.658;2024-02-14T00:35:21;10.55;;;7.80;;
76712;SDS011;65640;43.154;25.658;2024-02-14T00:37:47;6.63;;;6.00;;
76712;SDS011;65640;43.154;25.658;2024-02-14T00:40:13;5.72;;;5.30;;
76712;SDS011;65640;43.154;25.658;2024-02-14T00:42:38;5.78;;;5.30;;
76712;SDS011;65640;43.154;25.658;2024-02-14T00:45:04;5.35;;;4.85;;
76712;SDS011;65640;43.154;25.658;2024-02-14T00:47:33;6.53;;;5.28;;
76712;SDS011;65640;43.154;25.658;2024-02-14T00:49:59;5.43;;;4.93;;
76712;SDS011;65640;43.154;25.658;2024-02-14T00:52:24;6.35;;;5.63;;
76712;SDS011;65640;43.154;25.658;2024-02-14T00:54:50;5.93;;;5.38;;
76712;SDS011;65640;43.154;25.658;2024-02-14T00:57:15;6.75;;;6.05;;
76712;SDS011;65640;43.154;25.658;2024-02-14T00:59:41;6.75;;;5.95;;
76712;SDS011;65640;43.154;25.658;2024-02-14T01:02:07;7.03;;;6.43;;
76712;SDS011;65640;43.154;25.658;2024-02-14T01:04:32;10.32;;;7.40;;
76712;SDS011;65640;43.154;25.658;2024-02-14T01:06:58;6.68;;;6.03;;
76712;SDS011;65640;43.154;25.658;2024-02-14T01:09:23;6.63;;;6.03;;
76712;SDS011;65640;43.154;25.658;2024-02-14T01:11:49;7.10;;;5.28;;
76712;SDS011;65640;43.154;25.658;2024-02-14T01:14:14;5.97;;;5.57;;
76712;SDS011;65640;43.154;25.658;2024-02-14T01:16:43;5.90;;;5.43;;
76712;SDS011;65640;43.154;25.658;2024-02-14T01:19:09;5.90;;;5.30;;
76712;SDS011;65640;43.154;25.658;2024-02-14T01:21:35;7.07;;;6.38;;
76712;SDS011;65640;43.154;25.658;2024-02-14T01:24:00;6.78;;;6.03;;
76712;SDS011;65640;43.154;25.658;2024-02-14T01:26:25;6.40;;;5.80;;
76712;SDS011;65640;43.154;25.658;2024-02-14T01:28:51;6.75;;;6.15;;
76712;SDS011;65640;43.154;25.658;2024-02-14T01:31:16;5.57;;;5.07;;
76712;SDS011;65640;43.154;25.658;2024-02-14T01:33:42;6.88;;;5.63;;
76712;SDS011;65640;43.154;25.658;2024-02-14T01:36:08;6.75;;;6.03;;
76712;SDS011;65640;43.154;25.658;2024-02-14T01:38:34;5.50;;;5.10;;
76712;SDS011;65640;43.154;25.658;2024-02-14T01:41:01;5.07;;;4.60;;
76712;SDS011;65640;43.154;25.658;2024-02-14T01:43:30;5.28;;;4.78;;
76712;SDS011;65640;43.154;25.658;2024-02-14T01:45:56;5.78;;;5.38;;
76712;SDS011;65640;43.154;25.658;2024-02-14T01:48:29;6.95;;;5.40;;
76712;SDS011;65640;43.154;25.658;2024-02-14T01:50:55;4.95;;;4.53;;
76712;SDS011;65640;43.154;25.658;2024-02-14T01:53:21;6.82;;;5.15;;
76712;SDS011;65640;43.154;25.658;2024-02-14T01:55:46;6.10;;;5.50;;
76712;SDS011;65640;43.154;25.658;2024-02-14T01:58:12;5.75;;;5.25;;
76712;SDS011;65640;43.154;25.658;2024-02-14T02:00:38;5.97;;;5.47;;
76712;SDS011;65640;43.154;25.658;2024-02-14T02:03:04;6.20;;;5.60;;
76712;SDS011;65640;43.154;25.658;2024-02-14T02:05:29;5.70;;;5.20;;
76712;SDS011;65640;43.154;25.658;2024-02-14T02:07:55;6.00;;;5.50;;
76712;SDS011;65640;43.154;25.658;2024-02-14T02:10:20;5.70;;;5.18;;
76712;SDS011;65640;43.154;25.658;2024-02-14T02:12:47;5.75;;;5.18;;
76712;SDS011;65640;43.154;25.658;2024-02-14T02:15:13;5.57;;;5.18;;
76712;SDS011;65640;43.154;25.658;2024-02-14T02:17:39;6.60;;;5.57;;
76712;SDS011;65640;43.154;25.658;2024-02-14T02:20:05;6.68;;;6.07;;
76712;SDS011;65640;43.154;25.658;2024-02-14T02:22:32;6.57;;;5.75;;
76712;SDS011;65640;43.154;25.658;2024-02-14T02:25:00;6.00;;;5.50;;
76712;SDS011;65640;43.154;25.658;2024-02-14T02:27:26;6.32;;;4.40;;
76712;SDS011;65640;43.154;25.658;2024-02-14T02:29:51;5.55;;;5.05;;
76712;SDS011;65640;43.154;25.658;2024-02-14T02:32:17;6.07;;;5.30;;
76712;SDS011;65640;43.154;25.658;2024-02-14T02:34:43;6.28;;;5.88;;
76712;SDS011;65640;43.154;25.658;2024-02-14T02:37:10;5.55;;;5.05;;
76712;SDS011;65640;43.154;25.658;2024-02-14T02:39:36;5.20;;;4.45;;
76712;SDS011;65640;43.154;25.658;2024-02-14T02:42:02;6.00;;;5.40;;
76712;SDS011;65640;43.154;25.658;2024-02-14T02:44:28;5.63;;;5.13;;
76712;SDS011;65640;43.154;25.658;2024-02-14T02:46:54;4.82;;;4.53;;
76712;SDS011;65640;43.154;25.658;2024-02-14T02:49:20;4.85;;;4.45;;
76712;SDS011;65640;43.154;25.658;2024-02-14T02:51:46;8.77;;;5.82;;
76712;SDS011;65640;43.154;25.658;2024-02-14T02:54:11;7.15;;;6.45;;
76712;SDS011;65640;43.154;25.658;2024-02-14T02:56:37;6.05;;;5.45;;
76712;SDS011;65640;43.154;25.658;2024-02-14T02:59:02;6.72;;;6.03;;
76712;SDS011;65640;43.154;25.658;2024-02-14T03:01:28;9.57;;;6.15;;
76712;SDS011;65640;43.154;25.658;2024-02-14T03:03:59;6.13;;;5.55;;
76712;SDS011;65640;43.154;25.658;2024-02-14T03:06:25;6.70;;;5.47;;
76712;SDS011;65640;43.154;25.658;2024-02-14T03:08:51;7.05;;;5.43;;
76712;SDS011;65640;43.154;25.658;2024-02-14T03:11:18;6.20;;;5.65;;
76712;SDS011;65640;43.154;25.658;2024-02-14T03:13:44;6.60;;;5.60;;
76712;SDS011;65640;43.154;25.658;2024-02-14T03:16:09;4.88;;;4.47;;
76712;SDS011;65640;43.154;25.658;2024-02-14T03:18:36;4.80;;;4.50;;
76712;SDS011;65640;43.154;25.658;2024-02-14T03:21:03;4.70;;;4.03;;
76712;SDS011;65640;43.154;25.658;2024-02-14T03:23:31;4.47;;;4.18;;
76712;SDS011;65640;43.154;25.658;2024-02-14T03:25:57;4.85;;;4.00;;
76712;SDS011;65640;43.154;25.658;2024-02-14T03:28:23;4.90;;;4.40;;
76712;SDS011;65640;43.154;25.658;2024-02-14T03:30:48;5.75;;;5.35;;
76712;SDS011;65640;43.154;25.658;2024-02-14T03:33:13;6.63;;;5.82;;
76712;SDS011;65640;43.154;25.658;2024-02-14T03:35:39;6.15;;;5.38;;
76712;SDS011;65640;43.154;25.658;2024-02-14T03:38:06;6.47;;;5.97;;
76712;SDS011;65640;43.154;25.658;2024-02-14T03:40:33;5.55;;;5.07;;
76712;SDS011;65640;43.154;25.658;2024-02-14T03:42:59;4.78;;;4.47;;
76712;SDS011;65640;43.154;25.658;2024-02-14T03:45:24;5.10;;;4.70;;
76712;SDS011;65640;43.154;25.658;2024-02-14T03:47:50;7.55;;;5.78;;
76712;SDS011;65640;43.154;25.658;2024-02-14T03:50:15;5.90;;;5.40;;
76712;SDS011;65640;43.154;25.658;2024-02-14T03:52:41;5.30;;;4.80;;
76712;SDS011;65640;43.154;25.658;2024-02-14T03:55:07;8.43;;;5.75;;
76712;SDS011;65640;43.154;25.658;2024-02-14T03:57:34;7.05;;;5.95;;
76712;SDS011;65640;43.154;25.658;2024-02-14T04:00:03;5.72;;;5.15;;
76712;SDS011;65640;43.154;25.658;2024-02-14T04:02:32;5.88;;;5.18;;
76712;SDS011;65640;43.154;25.658;2024-02-14T04:04:58;5.40;;;5.00;;
76712;SDS011;65640;43.154;25.658;2024-02-14T04:07:23;6.47;;;5.97;;
76712;SDS011;65640;43.154;25.658;2024-02-14T04:09:49;5.70;;;5.20;;
76712;SDS011;65640;43.154;25.658;2024-02-14T04:12:14;5.00;;;4.60;;
76712;SDS011;65640;43.154;25.658;2024-02-14T04:14:40;4.68;;;4.28;;
76712;SDS011;65640;43.154;25.658;2024-02-14T04:17:05;5.43;;;4.75;;
76712;SDS011;65640;43.154;25.658;2024-02-14T04:19:32;4.60;;;4.20;;
76712;SDS011;65640;43.154;25.658;2024-02-14T04:21:58;4.80;;;4.50;;
76712;SDS011;65640;43.154;25.658;2024-02-14T04:24:23;5.72;;;5.28;;
76712;SDS011;65640;43.154;25.658;2024-02-14T04:26:49;5.22;;;4.78;;
76712;SDS011;65640;43.154;25.658;2024-02-14T04:29:14;4.22;;;3.88;;
76712;SDS011;65640;43.154;25.658;2024-02-14T04:31:40;5.00;;;4.60;;
76712;SDS011;65640;43.154;25.658;2024-02-14T04:34:05;5.03;;;4.47;;
76712;SDS011;65640;43.154;25.658;2024-02-14T04:36:33;5.20;;;4.70;;
76712;SDS011;65640;43.154;25.658;2024-02-14T04:39:00;5.20;;;4.30;;
76712;SDS011;65640;43.154;25.658;2024-02-14T04:41:25;5.43;;;4.88;;
76712;SDS011;65640;43.154;25.658;2024-02-14T04:43:51;4.82;;;4.43;;
76712;SDS011;65640;43.154;25.658;2024-02-14T04:46:16;5.00;;;4.50;;
76712;SDS011;65640;43.154;25.658;2024-02-14T04:48:42;4.22;;;3.85;;
76712;SDS011;65640;43.154;25.658;2024-02-14T04:51:07;4.80;;;4.20;;
76712;SDS011;65640;43.154;25.658;2024-02-14T04:53:33;5.43;;;5.00;;
76712;SDS011;65640;43.154;25.658;2024-02-14T04:55:58;6.65;;;5.88;;
76712;SDS011;65640;43.154;25.658;2024-02-14T04:58:24;5.45;;;4.90;;
76712;SDS011;65640;43.154;25.658;2024-02-14T05:00:51;8.60;;;6.00;;
76712;SDS011;65640;43.154;25.658;2024-02-14T05:03:16;7.75;;;6.75;;
76712;SDS011;65640;43.154;25.658;2024-02-14T05:05:42;6.95;;;6.07;;
76712;SDS011;65640;43.154;25.658;2024-02-14T05:08:07;8.05;;;6.97;;
76712;SDS011;65640;43.154;25.658;2024-02-14T05:10:33;8.88;;;7.65;;
76712;SDS011;65640;43.154;25.658;2024-02-14T05:12:58;17.30;;;11.88;;
76712;SDS011;65640;43.154;25.658;2024-02-14T05:15:24;15.73;;;12.10;;
76712;SDS011;65640;43.154;25.658;2024-02-14T05:17:50;12.80;;;9.82;;
76712;SDS011;65640;43.154;25.658;2024-02-14T05:20:16;11.73;;;9.52;;
76712;SDS011;65640;43.154;25.658;2024-02-14T05:22:41;12.75;;;9.30;;
76712;SDS011;65640;43.154;25.658;2024-02-14T05:25:07;10.13;;;8.98;;
76712;SDS011;65640;43.154;25.658;2024-02-14T05:27:34;11.57;;;8.88;;
76712;SDS011;65640;43.154;25.658;2024-02-14T05:30:00;16.48;;;11.20;;
76712;SDS011;65640;43.154;25.658;2024-02-14T05:32:25;12.07;;;10.68;;
76712;SDS011;65640;43.154;25.658;2024-02-14T05:34:51;15.63;;;10.60;;
76712;SDS011;65640;43.154;25.658;2024-02-14T05:37:16;10.00;;;8.13;;
76712;SDS011;65640;43.154;25.658;2024-02-14T05:39:42;22.65;;;14.52;;
76712;SDS011;65640;43.154;25.658;2024-02-14T05:42:07;18.85;;;12.07;;
76712;SDS011;65640;43.154;25.658;2024-02-14T05:44:33;18.73;;;10.43;;
76712;SDS011;65640;43.154;25.658;2024-02-14T05:46:58;16.58;;;10.60;;
76712;SDS011;65640;43.154;25.658;2024-02-14T05:49:24;13.10;;;9.90;;
76712;SDS011;65640;43.154;25.658;2024-02-14T05:51:49;14.63;;;9.48;;
76712;SDS011;65640;43.154;25.658;2024-02-14T05:54:17;8.13;;;7.03;;
76712;SDS011;65640;43.154;25.658;2024-02-14T05:56:43;8.77;;;7.88;;
76712;SDS011;65640;43.154;25.658;2024-02-14T05:59:09;9.98;;;7.97;;
76712;SDS011;65640;43.154;25.658;2024-02-14T06:01:35;7.72;;;7.03;;
76712;SDS011;65640;43.154;25.658;2024-02-14T06:04:00;7.75;;;7.00;;
76712;SDS011;65640;43.154;25.658;2024-02-14T06:06:26;10.57;;;8.68;;
76712;SDS011;65640;43.154;25.658;2024-02-14T06:08:51;10.07;;;8.90;;
76712;SDS011;65640;43.154;25.658;2024-02-14T06:11:16;10.60;;;8.93;;
76712;SDS011;65640;43.154;25.658;2024-02-14T06:13:45;8.95;;;7.43;;
76712;SDS011;65640;43.154;25.658;2024-02-14T06:16:10;8.90;;;8.00;;
76712;SDS011;65640;43.154;25.658;2024-02-14T06:18:36;8.82;;;7.90;;
76712;SDS011;65640;43.154;25.658;2024-02-14T06:21:02;8.30;;;7.60;;
76712;SDS011;65640;43.154;25.658;2024-02-14T06:23:27;13.00;;;9.63;;
76712;SDS011;65640;43.154;25.658;2024-02-14T06:25:52;20.88;;;10.82;;
76712;SDS011;65640;43.154;25.658;2024-02-14T06:28:18;13.73;;;9.35;;
76712;SDS011;65640;43.154;25.658;2024-02-14T06:30:44;8.98;;;8.05;;
76712;SDS011;65640;43.154;25.658;2024-02-14T06:33:09;8.45;;;7.55;;
76712;SDS011;65640;43.154;25.658;2024-02-14T06:35:35;7.78;;;7.03;;
76712;SDS011;65640;43.154;25.658;2024-02-14T06:38:00;9.30;;;7.93;;
76712;SDS011;65640;43.154;25.658;2024-02-14T06:40:25;7.55;;;6.85;;
76712;SDS011;65640;43.154;25.658;2024-02-14T06:45:19;9.45;;;8.27;;
76712;SDS011;65640;43.154;25.658;2024-02-14T06:47:45;11.52;;;9.35;;
76712;SDS011;65640;43.154;25.658;2024-02-14T06:50:10;11.32;;;7.82;;
76712;SDS011;65640;43.154;25.658;2024-02-14T06:52:36;13.55;;;8.95;;
76712;SDS011;65640;43.154;25.658;2024-02-14T06:55:01;8.70;;;7.93;;
76712;SDS011;65640;43.154;25.658;2024-02-14T06:57:28;10.10;;;8.73;;
76712;SDS011;65640;43.154;25.658;2024-02-14T06:59:54;9.50;;;8.57;;
76712;SDS011;65640;43.154;25.658;2024-02-14T07:02:19;10.73;;;9.10;;
76712;SDS011;65640;43.154;25.658;2024-02-14T07:04:46;10.73;;;9.35;;
76712;SDS011;65640;43.154;25.658;2024-02-14T07:07:11;11.55;;;10.18;;
76712;SDS011;65640;43.154;25.658;2024-02-14T07:09:37;12.30;;;10.68;;
76712;SDS011;65640;43.154;25.658;2024-02-14T07:12:04;11.43;;;8.45;;
76712;SDS011;65640;43.154;25.658;2024-02-14T07:14:29;11.07;;;9.07;;
76712;SDS011;65640;43.154;25.658;2024-02-14T07:16:55;8.43;;;7.47;;
76712;SDS011;65640;43.154;25.658;2024-02-14T07:19:20;8.75;;;7.53;;
76712;SDS011;65640;43.154;25.658;2024-02-14T07:21:45;9.57;;;8.55;;
76712;SDS011;65640;43.154;25.658;2024-02-14T07:24:11;9.45;;;7.97;;
76712;SDS011;65640;43.154;25.658;2024-02-14T07:26:36;11.55;;;8.30;;
76712;SDS011;65640;43.154;25.658;2024-02-14T07:29:02;9.18;;;8.23;;
76712;SDS011;65640;43.154;25.658;2024-02-14T07:31:31;9.18;;;8.25;;
76712;SDS011;65640;43.154;25.658;2024-02-14T07:33:58;11.00;;;9.25;;
76712;SDS011;65640;43.154;25.658;2024-02-14T07:36:24;13.93;;;7.93;;
76712;SDS011;65640;43.154;25.658;2024-02-14T07:38:49;12.30;;;8.70;;
76712;SDS011;65640;43.154;25.658;2024-02-14T07:41:15;9.13;;;7.80;;
76712;SDS011;65640;43.154;25.658;2024-02-14T07:43:40;7.75;;;7.00;;
76712;SDS011;65640;43.154;25.658;2024-02-14T07:46:06;9.57;;;8.57;;
76712;SDS011;65640;43.154;25.658;2024-02-14T07:48:32;10.15;;;8.10;;
76712;SDS011;65640;43.154;25.658;2024-02-14T07:50:58;8.52;;;7.63;;
76712;SDS011;65640;43.154;25.658;2024-02-14T07:53:24;8.10;;;7.40;;
76712;SDS011;65640;43.154;25.658;2024-02-14T07:55:50;7.05;;;6.35;;
76712;SDS011;65640;43.154;25.658;2024-02-14T07:58:16;7.70;;;6.90;;
76712;SDS011;65640;43.154;25.658;2024-02-14T08:00:41;9.15;;;7.60;;
76712;SDS011;65640;43.154;25.658;2024-02-14T08:03:06;7.30;;;6.60;;
76712;SDS011;65640;43.154;25.658;2024-02-14T08:05:33;9.68;;;6.93;;
76712;SDS011;65640;43.154;25.658;2024-02-14T08:07:58;7.20;;;6.60;;
76712;SDS011;65640;43.154;25.658;2024-02-14T08:10:24;8.40;;;7.57;;
76712;SDS011;65640;43.154;25.658;2024-02-14T08:12:49;8.70;;;7.90;;
76712;SDS011;65640;43.154;25.658;2024-02-14T08:15:14;9.43;;;8.48;;
76712;SDS011;65640;43.154;25.658;2024-02-14T08:17:40;10.43;;;8.55;;
76712;SDS011;65640;43.154;25.658;2024-02-14T08:20:05;8.15;;;7.25;;
76712;SDS011;65640;43.154;25.658;2024-02-14T08:22:31;6.00;;;5.47;;
76712;SDS011;65640;43.154;25.658;2024-02-14T08:24:58;3.55;;;3.33;;
76712;SDS011;65640;43.154;25.658;2024-02-14T08:27:24;2.55;;;2.17;;
76712;SDS011;65640;43.154;25.658;2024-02-14T08:29:51;2.50;;;2.30;;
76712;SDS011;65640;43.154;25.658;2024-02-14T08:32:16;2.30;;;2.10;;
76712;SDS011;65640;43.154;25.658;2024-02-14T08:34:41;2.50;;;1.65;;
76712;SDS011;65640;43.154;25.658;2024-02-14T08:37:07;1.30;;;1.20;;
76712;SDS011;65640;43.154;25.658;2024-02-14T08:39:33;4.18;;;1.50;;
76712;SDS011;65640;43.154;25.658;2024-02-14T08:41:58;1.20;;;1.20;;
76712;SDS011;65640;43.154;25.658;2024-02-14T08:44:26;1.25;;;1.15;;
76712;SDS011;65640;43.154;25.658;2024-02-14T08:46:52;1.85;;;1.75;;
76712;SDS011;65640;43.154;25.658;2024-02-14T08:49:18;2.13;;;1.80;;
76712;SDS011;65640;43.154;25.658;2024-02-14T08:51:43;1.50;;;1.40;;
76712;SDS011;65640;43.154;25.658;2024-02-14T08:54:11;1.63;;;1.48;;
76712;SDS011;65640;43.154;25.658;2024-02-14T08:56:37;2.20;;;2.00;;
76712;SDS011;65640;43.154;25.658;2024-02-14T08:59:02;2.10;;;1.83;;
76712;SDS011;65640;43.154;25.658;2024-02-14T09:01:29;1.95;;;1.85;;
76712;SDS011;65640;43.154;25.658;2024-02-14T09:03:55;1.42;;;1.33;;
76712;SDS011;65640;43.154;25.658;2024-02-14T09:06:21;3.35;;;2.63;;
76712;SDS011;65640;43.154;25.658;2024-02-14T09:08:46;7.72;;;3.40;;
76712;SDS011;65640;43.154;25.658;2024-02-14T09:11:12;2.90;;;2.47;;
76712;SDS011;65640;43.154;25.658;2024-02-14T09:13:38;2.70;;;2.50;;
76712;SDS011;65640;43.154;25.658;2024-02-14T09:16:05;2.05;;;1.95;;
76712;SDS011;65640;43.154;25.658;2024-02-14T09:18:31;2.50;;;2.30;;
76712;SDS011;65640;43.154;25.658;2024-02-14T09:20:57;2.70;;;2.50;;
76712;SDS011;65640;43.154;25.658;2024-02-14T09:23:23;2.55;;;2.45;;
76712;SDS011;65640;43.154;25.658;2024-02-14T09:25:48;3.42;;;3.22;;
76712;SDS011;65640;43.154;25.658;2024-02-14T09:28:17;2.42;;;2.22;;
76712;SDS011;65640;43.154;25.658;2024-02-14T09:30:43;3.92;;;1.95;;
76712;SDS011;65640;43.154;25.658;2024-02-14T09:33:09;4.60;;;4.20;;
76712;SDS011;65640;43.154;25.658;2024-02-14T09:35:34;3.28;;;2.13;;
76712;SDS011;65640;43.154;25.658;2024-02-14T09:38:02;4.18;;;3.35;;
76712;SDS011;65640;43.154;25.658;2024-02-14T09:40:28;3.28;;;2.97;;
76712;SDS011;65640;43.154;25.658;2024-02-14T09:42:54;2.35;;;2.17;;
76712;SDS011;65640;43.154;25.658;2024-02-14T09:45:23;3.35;;;3.03;;
76712;SDS011;65640;43.154;25.658;2024-02-14T09:47:50;3.40;;;3.10;;
76712;SDS011;65640;43.154;25.658;2024-02-14T09:50:17;13.68;;;9.50;;
76712;SDS011;65640;43.154;25.658;2024-02-14T09:52:43;8.70;;;6.45;;
76712;SDS011;65640;43.154;25.658;2024-02-14T09:55:10;4.50;;;4.20;;
76712;SDS011;65640;43.154;25.658;2024-02-14T09:57:37;6.20;;;3.80;;
76712;SDS011;65640;43.154;25.658;2024-02-14T10:00:06;4.07;;;3.88;;
76712;SDS011;65640;43.154;25.658;2024-02-14T10:02:34;3.80;;;3.50;;
76712;SDS011;65640;43.154;25.658;2024-02-14T10:05:00;3.90;;;3.60;;
76712;SDS011;65640;43.154;25.658;2024-02-14T10:07:26;3.67;;;3.38;;
76712;SDS011;65640;43.154;25.658;2024-02-14T10:09:51;3.35;;;2.42;;
76712;SDS011;65640;43.154;25.658;2024-02-14T10:12:16;4.80;;;2.60;;
76712;SDS011;65640;43.154;25.658;2024-02-14T10:14:43;2.90;;;2.70;;
76712;SDS011;65640;43.154;25.658;2024-02-14T10:17:08;2.50;;;2.05;;
76712;SDS011;65640;43.154;25.658;2024-02-14T10:19:35;2.67;;;2.47;;
76712;SDS011;65640;43.154;25.658;2024-02-14T10:22:01;3.10;;;2.90;;
76712;SDS011;65640;43.154;25.658;2024-02-14T10:24:30;3.13;;;2.92;;
76712;SDS011;65640;43.154;25.658;2024-02-14T10:26:56;3.65;;;3.35;;
76712;SDS011;65640;43.154;25.658;2024-02-14T10:29:24;3.45;;;3.25;;
76712;SDS011;65640;43.154;25.658;2024-02-14T10:31:50;2.38;;;2.28;;
76712;SDS011;65640;43.154;25.658;2024-02-14T10:34:16;2.90;;;2.70;;
76712;SDS011;65640;43.154;25.658;2024-02-14T10:36:43;2.85;;;2.65;;
76712;SDS011;65640;43.154;25.658;2024-02-14T10:39:09;3.50;;;2.97;;
76712;SDS011;65640;43.154;25.658;2024-02-14T10:41:36;2.95;;;2.75;;
76712;SDS011;65640;43.154;25.658;2024-02-14T10:44:05;2.70;;;2.50;;
76712;SDS011;65640;43.154;25.658;2024-02-14T10:46:31;3.15;;;2.83;;
76712;SDS011;65640;43.154;25.658;2024-02-14T10:49:02;2.65;;;2.45;;
76712;SDS011;65640;43.154;25.658;2024-02-14T10:51:32;2.60;;;2.42;;
76712;SDS011;65640;43.154;25.658;2024-02-14T10:54:00;2.33;;;2.15;;
76712;SDS011;65640;43.154;25.658;2024-02-14T10:56:31;3.80;;;3.50;;
76712;SDS011;65640;43.154;25.658;2024-02-14T10:58:57;4.20;;;3.58;;
76712;SDS011;65640;43.154;25.658;2024-02-14T11:01:24;4.65;;;4.25;;
76712;SDS011;65640;43.154;25.658;2024-02-14T11:03:52;6.38;;;5.88;;
76712;SDS011;65640;43.154;25.658;2024-02-14T11:06:18;4.07;;;3.78;;
76712;SDS011;65640;43.154;25.658;2024-02-14T11:08:57;4.03;;;3.63;;
76712;SDS011;65640;43.154;25.658;2024-02-14T11:11:24;5.10;;;4.07;;
76712;SDS011;65640;43.154;25.658;2024-02-14T11:13:53;4.63;;;4.30;;
76712;SDS011;65640;43.154;25.658;2024-02-14T11:16:22;5.07;;;4.40;;
76712;SDS011;65640;43.154;25.658;2024-02-14T11:18:48;3.17;;;2.88;;
76712;SDS011;65640;43.154;25.658;2024-02-14T11:21:16;4.03;;;3.72;;
76712;SDS011;65640;43.154;25.658;2024-02-14T11:23:53;4.38;;;4.03;;
76712;SDS011;65640;43.154;25.658;2024-02-14T11:26:19;4.70;;;4.32;;
76712;SDS011;65640;43.154;25.658;2024-02-14T11:28:45;4.60;;;4.28;;
76712;SDS011;65640;43.154;25.658;2024-02-14T11:31:16;5.05;;;4.65;;
76712;SDS011;65640;43.154;25.658;2024-02-14T11:33:42;8.05;;;4.28;;
76712;SDS011;65640;43.154;25.658;2024-02-14T11:36:10;4.18;;;3.45;;
76712;SDS011;65640;43.154;25.658;2024-02-14T11:38:36;4.78;;;4.38;;
76712;SDS011;65640;43.154;25.658;2024-02-14T11:41:02;3.97;;;3.55;;
76712;SDS011;65640;43.154;25.658;2024-02-14T11:43:28;4.32;;;3.92;;
76712;SDS011;65640;43.154;25.658;2024-02-14T11:45:54;4.68;;;4.07;;
76712;SDS011;65640;43.154;25.658;2024-02-14T11:48:20;3.50;;;3.20;;
76712;SDS011;65640;43.154;25.658;2024-02-14T11:50:46;3.50;;;3.28;;
76712;SDS011;65640;43.154;25.658;2024-02-14T11:53:12;3.30;;;3.03;;
76712;SDS011;65640;43.154;25.658;2024-02-14T11:55:40;3.33;;;3.03;;
76712;SDS011;65640;43.154;25.658;2024-02-14T11:58:11;3.58;;;3.28;;
76712;SDS011;65640;43.154;25.658;2024-02-14T12:00:42;3.40;;;3.15;;
76712;SDS011;65640;43.154;25.658;2024-02-14T12:03:13;2.85;;;2.65;;
76712;SDS011;65640;43.154;25.658;2024-02-14T12:05:41;2.70;;;2.50;;
76712;SDS011;65640;43.154;25.658;2024-02-14T12:08:09;2.75;;;2.55;;
76712;SDS011;65640;43.154;25.658;2024-02-14T12:10:35;3.90;;;3.60;;
76712;SDS011;65640;43.154;25.658;2024-02-14T12:13:08;5.63;;;2.65;;
76712;SDS011;65640;43.154;25.658;2024-02-14T12:15:37;4.72;;;3.28;;
76712;SDS011;65640;43.154;25.658;2024-02-14T12:18:04;3.97;;;3.03;;
76712;SDS011;65640;43.154;25.658;2024-02-14T12:20:29;4.00;;;3.60;;
76712;SDS011;65640;43.154;25.658;2024-02-14T12:22:54;3.13;;;2.83;;
76712;SDS011;65640;43.154;25.658;2024-02-14T12:25:20;5.30;;;3.55;;
76712;SDS011;65640;43.154;25.658;2024-02-14T12:27:52;2.55;;;2.35;;
76712;SDS011;65640;43.154;25.658;2024-02-14T12:30:18;2.97;;;2.78;;
76712;SDS011;65640;43.154;25.658;2024-02-14T12:37:36;3.50;;;3.20;;
76712;SDS011;65640;43.154;25.658;2024-02-14T12:40:01;4.32;;;3.63;;
76712;SDS011;65640;43.154;25.658;2024-02-14T12:42:27;2.95;;;2.70;;
76712;SDS011;65640;43.154;25.658;2024-02-14T12:44:55;4.03;;;3.63;;
76712;SDS011;65640;43.154;25.658;2024-02-14T12:47:21;4.63;;;3.53;;
76712;SDS011;65640;43.154;25.658;2024-02-14T12:49:47;3.97;;;3.60;;
76712;SDS011;65640;43.154;25.658;2024-02-14T12:54:40;2.55;;;2.40;;
76712;SDS011;65640;43.154;25.658;2024-02-14T12:57:05;2.90;;;2.55;;
76712;SDS011;65640;43.154;25.658;2024-02-14T12:59:31;2.90;;;2.70;;
76712;SDS011;65640;43.154;25.658;2024-02-14T13:01:57;2.85;;;2.65;;
76712;SDS011;65640;43.154;25.658;2024-02-14T13:04:22;3.10;;;2.90;;
76712;SDS011;65640;43.154;25.658;2024-02-14T13:06:48;2.63;;;2.42;;
76712;SDS011;65640;43.154;25.658;2024-02-14T13:09:13;2.95;;;2.70;;
76712;SDS011;65640;43.154;25.658;2024-02-14T13:11:39;2.35;;;2.15;;
76712;SDS011;65640;43.154;25.658;2024-02-14T13:14:06;5.30;;;3.08;;
76712;SDS011;65640;43.154;25.658;2024-02-14T13:16:31;4.03;;;3.20;;
76712;SDS011;65640;43.154;25.658;2024-02-14T13:18:57;5.22;;;4.30;;
76712;SDS011;65640;43.154;25.658;2024-02-14T13:21:22;9.32;;;5.25;;
76712;SDS011;65640;43.154;25.658;2024-02-14T13:23:47;7.68;;;4.18;;
76712;SDS011;65640;43.154;25.658;2024-02-14T13:26:13;8.32;;;5.10;;
76712;SDS011;65640;43.154;25.658;2024-02-14T13:28:39;5.80;;;3.85;;
76712;SDS011;65640;43.154;25.658;2024-02-14T13:31:05;8.30;;;4.78;;
76712;SDS011;65640;43.154;25.658;2024-02-14T13:33:31;4.35;;;4.00;;
76712;SDS011;65640;43.154;25.658;2024-02-14T13:35:56;5.00;;;4.10;;
76712;SDS011;65640;43.154;25.658;2024-02-14T13:38:22;6.13;;;3.20;;
76712;SDS011;65640;43.154;25.658;2024-02-14T13:40:47;3.38;;;3.10;;
76712;SDS011;65640;43.154;25.658;2024-02-14T13:43:13;3.45;;;3.00;;
76712;SDS011;65640;43.154;25.658;2024-02-14T13:45:42;4.35;;;3.95;;
76712;SDS011;65640;43.154;25.658;2024-02-14T13:48:09;3.92;;;3.63;;
76712;SDS011;65640;43.154;25.658;2024-02-14T13:50:35;3.55;;;3.25;;
76712;SDS011;65640;43.154;25.658;2024-02-14T13:53:01;5.47;;;3.72;;
76712;SDS011;65640;43.154;25.658;2024-02-14T13:55:26;3.08;;;2.78;;
76712;SDS011;65640;43.154;25.658;2024-02-14T13:57:51;4.18;;;3.78;;
76712;SDS011;65640;43.154;25.658;2024-02-14T14:00:17;4.03;;;3.63;;
76712;SDS011;65640;43.154;25.658;2024-02-14T14:02:42;3.78;;;3.42;;
76712;SDS011;65640;43.154;25.658;2024-02-14T14:05:08;4.47;;;4.07;;
76712;SDS011;65640;43.154;25.658;2024-02-14T14:07:35;3.63;;;3.33;;
76712;SDS011;65640;43.154;25.658;2024-02-14T14:10:02;3.67;;;3.38;;
76712;SDS011;65640;43.154;25.658;2024-02-14T14:17:18;4.30;;;2.70;;
76712;SDS011;65640;43.154;25.658;2024-02-14T14:19:44;3.58;;;3.28;;
76712;SDS011;65640;43.154;25.658;2024-02-14T14:22:09;3.47;;;3.05;;
76712;SDS011;65640;43.154;25.658;2024-02-14T14:24:35;3.65;;;3.35;;
76712;SDS011;65640;43.154;25.658;2024-02-14T14:27:01;4.45;;;3.50;;
76712;SDS011;65640;43.154;25.658;2024-02-14T14:29:27;4.38;;;3.92;;
76712;SDS011;65640;43.154;25.658;2024-02-14T14:31:53;5.38;;;3.50;;
76712;SDS011;65640;43.154;25.658;2024-02-14T14:34:19;9.82;;;4.28;;
76712;SDS011;65640;43.154;25.658;2024-02-14T14:36:44;3.72;;;3.30;;
76712;SDS011;65640;43.154;25.658;2024-02-14T14:39:10;4.50;;;4.10;;
76712;SDS011;65640;43.154;25.658;2024-02-14T14:41:36;4.72;;;4.20;;